»·PEaware :: UAL5392 KSAN-KSFO

UAL5392 :: KSAN-KSFO

FLIGHT INFORMATION

Flight Status: Arrived
Operator:
United Airlines
More flights by this operator :: More flights under this callsign
Pilot: Alfredo R. (12181)
Aircraft: BOEING 737-700
(B737)
More flights by this aircraft type
Origin: KSAN San Diego Intl-Lindbergh
United States
Destination: KSFO San Francisco Intl
United States
More flights between these airports :: More routes between these airports
Route: PADRZ2 IKAYE RIZIN SPLNT STOKD SERFR SERFR4
File this flight plan on PilotEdge
Remarks:
Altitude:
(Current/Filed)
340ft
Speed:
(Current/Filed)
425kts
Departed: 07-Jun-20 07:17 PM
Arrived: 07-Jun-20 08:30 PM
Distance/Time
Traveled:
388nm/1:13
Distance/Time
To Go:
Arrived

Flight Plot

Page will automatically refresh every two minutes.

Flight plan parsing failed; only flown route is shown


Map Options




Map Legend


Flown Route
Filed Route
Departure Airport
Arrival Airport
Navaid (VOR, NDB)
Fix

Horizontal Profiles

Position Reports

Time Latitude Longitude Heading Altitude Ground
Speed
07-Jun-20 18:38 32.734632 -117.203772 194 17ft 0kts
07-Jun-20 18:38 32.734632 -117.203772 194 17ft 0kts
07-Jun-20 18:40 32.734632 -117.203772 194 17ft 0kts
07-Jun-20 18:41 32.734632 -117.203772 194 17ft 0kts
07-Jun-20 18:41 32.734632 -117.203772 194 17ft 0kts
07-Jun-20 18:43 32.734632 -117.203772 194 17ft 0kts
07-Jun-20 18:43 32.734632 -117.203772 194 17ft 0kts
07-Jun-20 18:44 32.734632 -117.203772 194 17ft 0kts
07-Jun-20 18:46 32.734632 -117.203772 194 17ft 0kts
07-Jun-20 18:46 32.734632 -117.203772 194 17ft 0kts
07-Jun-20 18:47 32.734632 -117.203772 194 17ft 0kts
07-Jun-20 18:48 32.734632 -117.203772 194 17ft 0kts
07-Jun-20 18:49 32.734632 -117.203772 194 17ft 0kts
07-Jun-20 18:50 32.734632 -117.203772 194 17ft 0kts
07-Jun-20 18:51 32.734632 -117.203772 194 17ft 0kts
07-Jun-20 18:52 32.734632 -117.203772 194 17ft 0kts
07-Jun-20 18:53 32.734632 -117.203772 194 17ft 0kts
07-Jun-20 18:54 32.734632 -117.203772 194 17ft 0kts
07-Jun-20 18:55 32.734632 -117.203772 194 17ft 0kts
07-Jun-20 18:56 32.734632 -117.203772 194 17ft 0kts
07-Jun-20 18:57 32.734632 -117.203772 194 17ft 0kts
07-Jun-20 18:58 32.734944 -117.203675 185 17ft 2kts
07-Jun-20 18:59 32.735181 -117.204005 101 17ft 2kts
07-Jun-20 19:00 32.734922 -117.202646 90 17ft 3kts
07-Jun-20 19:01 32.735118 -117.202358 27 17ft 0kts
07-Jun-20 19:02 32.735118 -117.202358 27 17ft 0kts
07-Jun-20 19:03 32.735118 -117.202358 27 17ft 0kts
07-Jun-20 19:04 32.735118 -117.202358 27 17ft 0kts
07-Jun-20 19:05 32.735118 -117.202358 27 17ft 0kts
07-Jun-20 19:06 32.735118 -117.202358 27 17ft 0kts
07-Jun-20 19:07 32.735429 -117.201833 88 17ft 6kts
07-Jun-20 19:08 32.734603 -117.198222 105 17ft 20kts
07-Jun-20 19:09 32.733207 -117.192497 105 20ft 18kts
07-Jun-20 19:10 32.731746 -117.186415 105 17ft 20kts
07-Jun-20 19:11 32.730251 -117.180300 106 17ft 21kts
07-Jun-20 19:12 32.729520 -117.176716 76 22ft 3kts
07-Jun-20 19:13 32.729527 -117.176684 75 23ft 0kts
07-Jun-20 19:14 32.729613 -117.176333 71 23ft 5kts
07-Jun-20 19:15 32.731083 -117.179468 286 21ft 33kts
07-Jun-20 19:16 32.740142 -117.215862 294 1294ft 154kts
07-Jun-20 19:17 32.771075 -117.269781 305 3384ft 228kts
07-Jun-20 19:18 32.810799 -117.336298 308 6960ft 255kts
07-Jun-20 19:19 32.856545 -117.406616 307 10398ft 277kts
07-Jun-20 19:20 32.908136 -117.486708 306 13447ft 306kts
07-Jun-20 19:21 32.962438 -117.571296 305 15188ft 308kts
07-Jun-20 19:22 33.016761 -117.656080 303 18218ft 326kts
07-Jun-20 19:23 33.076456 -117.742685 312 21163ft 346kts
07-Jun-20 19:24 33.151692 -117.818948 314 22967ft 361kts
07-Jun-20 19:25 33.225431 -117.899228 309 22982ft 354kts
07-Jun-20 19:26 33.295157 -117.982580 309 23022ft 348kts
07-Jun-20 19:27 33.365911 -118.067121 309 23395ft 347kts
07-Jun-20 19:28 33.436643 -118.151882 309 25657ft 364kts
07-Jun-20 19:29 33.509577 -118.239449 308 27790ft 377kts
07-Jun-20 19:30 33.584827 -118.330036 308 29672ft 390kts
07-Jun-20 19:31 33.662069 -118.423240 308 31565ft 397kts
07-Jun-20 19:32 33.739355 -118.516731 307 33740ft 392kts
07-Jun-20 19:33 33.817798 -118.611986 308 33955ft 407kts
07-Jun-20 19:34 33.896221 -118.707439 307 33968ft 403kts
07-Jun-20 19:35 33.975027 -118.803598 307 33981ft 400kts
07-Jun-20 19:36 34.053137 -118.899205 307 33984ft 401kts
07-Jun-20 19:37 34.131175 -118.995189 305 33980ft 399kts
07-Jun-20 19:38 34.191736 -119.104352 296 33979ft 392kts
07-Jun-20 19:39 34.249287 -119.216177 296 33969ft 392kts
07-Jun-20 19:40 34.306265 -119.327105 296 33969ft 392kts
07-Jun-20 19:41 34.363707 -119.439226 296 33965ft 390kts
07-Jun-20 19:42 34.424115 -119.548135 305 33993ft 398kts
07-Jun-20 19:43 34.502205 -119.644342 307 33989ft 401kts
07-Jun-20 19:44 34.580239 -119.740549 307 34004ft 399kts
07-Jun-20 19:45 34.657885 -119.836444 307 34004ft 395kts
07-Jun-20 19:46 34.734857 -119.931803 307 34084ft 397kts
07-Jun-20 19:47 34.811275 -120.026653 307 34090ft 382kts
07-Jun-20 19:48 34.885996 -120.119805 307 34090ft 388kts
07-Jun-20 19:49 34.961054 -120.213555 307 34088ft 387kts
07-Jun-20 19:50 35.035977 -120.307372 307 34084ft 382kts
07-Jun-20 19:51 35.110669 -120.399295 311 34087ft 386kts
07-Jun-20 19:52 35.190002 -120.487271 310 34084ft 385kts
07-Jun-20 19:53 35.268775 -120.575682 310 34085ft 382kts
07-Jun-20 19:54 35.345289 -120.661803 310 34095ft 374kts
07-Jun-20 19:55 35.421945 -120.748384 310 34096ft 374kts
07-Jun-20 19:56 35.499471 -120.833237 315 34097ft 375kts
07-Jun-20 19:57 35.583096 -120.910547 315 34093ft 376kts
07-Jun-20 19:58 35.666449 -120.988005 315 34091ft 375kts
07-Jun-20 19:59 35.749162 -121.065012 315 34010ft 367kts
07-Jun-20 20:00 35.828673 -121.139250 315 32461ft 346kts
07-Jun-20 20:01 35.905676 -121.211481 315 30843ft 353kts
07-Jun-20 20:02 35.983701 -121.284626 316 29207ft 351kts
07-Jun-20 20:03 36.061760 -121.358154 317 27542ft 355kts
07-Jun-20 20:04 36.146902 -121.425887 322 25886ft 366kts
07-Jun-20 20:05 36.230458 -121.490995 322 24225ft 335kts
07-Jun-20 20:06 36.307120 -121.551051 322 22722ft 323kts
07-Jun-20 20:07 36.382378 -121.610110 323 21469ft 319kts
07-Jun-20 20:08 36.456935 -121.668769 323 20244ft 314kts
07-Jun-20 20:09 36.530365 -121.726836 323 19063ft 311kts
07-Jun-20 20:10 36.603133 -121.784388 324 17868ft 306kts
07-Jun-20 20:11 36.674248 -121.840738 324 16667ft 301kts
07-Jun-20 20:12 36.745786 -121.892886 336 15464ft 300kts
07-Jun-20 20:13 36.826853 -121.918058 343 14243ft 298kts
07-Jun-20 20:14 36.907047 -121.940410 343 13043ft 296kts
07-Jun-20 20:15 36.983438 -121.965127 340 11822ft 268kts
07-Jun-20 20:16 37.052854 -121.992425 340 10788ft 260kts
07-Jun-20 20:17 37.121839 -122.019350 341 9758ft 257kts
07-Jun-20 20:18 37.187838 -122.045166 341 8664ft 244kts
07-Jun-20 20:19 37.251993 -122.070310 341 7578ft 241kts
07-Jun-20 20:20 37.315554 -122.095338 341 6570ft 239kts
07-Jun-20 20:21 37.378248 -122.120004 341 5572ft 233kts
07-Jun-20 20:22 37.437380 -122.140136 342 4552ft 205kts
07-Jun-20 20:24 37.487896 -122.157485 341 3588ft 173kts
07-Jun-20 20:25 37.531933 -122.177158 319 3116ft 149kts
07-Jun-20 20:26 37.554265 -122.221821 297 2561ft 152kts
07-Jun-20 20:27 37.572957 -122.266150 295 1680ft 120kts
07-Jun-20 20:28 37.588585 -122.303356 294 1028ft 119kts
07-Jun-20 20:29 37.604281 -122.340690 294 376ft 120kts
07-Jun-20 20:30 37.616667 -122.370418 298 12ft 28kts
07-Jun-20 20:31 37.619190 -122.380011 246 31ft 8kts
07-Jun-20 20:32 37.619212 -122.382414 243 31ft 4kts
07-Jun-20 20:33 37.619095 -122.383187 286 31ft 1kts
07-Jun-20 20:34 37.619181 -122.383524 289 30ft 0kts

Navigation Log

Ident Type
Flight plan parsing failed, navigation log unavailable